createdAt,value
2023-04-14T00:00:02.201Z,9.65
2023-04-14T00:00:38.390Z,9.63
2023-04-14T00:01:04.765Z,9.62
2023-04-14T00:01:28.886Z,9.60
2023-04-14T00:01:52.486Z,9.58
2023-04-14T00:02:16.013Z,9.58
2023-04-14T00:02:39.676Z,9.57
2023-04-14T00:03:03.665Z,9.57
2023-04-14T00:03:28.094Z,9.57
2023-04-14T00:03:52.185Z,9.58
2023-04-14T00:04:16.134Z,9.58
2023-04-14T00:04:39.583Z,9.59
2023-04-14T00:05:04.378Z,9.60
2023-04-14T00:05:31.059Z,9.61
2023-04-14T00:05:57.973Z,9.62
2023-04-14T00:06:21.321Z,9.63
2023-04-14T00:06:45.528Z,9.63
2023-04-14T00:07:10.383Z,9.65
2023-04-14T00:07:33.699Z,9.65
2023-04-14T00:07:57.938Z,9.64
2023-04-14T00:08:21.761Z,9.64
2023-04-14T00:08:45.701Z,9.63
2023-04-14T00:09:09.054Z,9.62
2023-04-14T00:09:32.134Z,9.62
2023-04-14T00:09:55.757Z,9.61
2023-04-14T00:10:19.107Z,9.59
2023-04-14T00:10:42.191Z,9.58
2023-04-14T00:11:05.611Z,9.57
2023-04-14T00:11:28.824Z,9.57
2023-04-14T00:11:52.351Z,9.56
2023-04-14T00:12:15.669Z,9.56
2023-04-14T00:12:39.498Z,9.57
2023-04-14T00:13:02.488Z,9.58
2023-04-14T00:13:28.191Z,9.59
2023-04-14T00:13:56.026Z,9.59
2023-04-14T00:14:22.465Z,9.61
2023-04-14T00:14:49.390Z,9.63
2023-04-14T00:15:14.584Z,9.64
2023-04-14T00:15:37.610Z,9.65
2023-04-14T00:16:03.643Z,9.66
2023-04-14T00:16:26.777Z,9.66
2023-04-14T00:16:50.553Z,9.66
2023-04-14T00:17:13.829Z,9.65
2023-04-14T00:17:37.565Z,9.65
2023-04-14T00:18:01.090Z,9.62
2023-04-14T00:18:24.573Z,9.61
2023-04-14T00:18:47.694Z,9.60
2023-04-14T00:19:11.213Z,9.58
2023-04-14T00:19:34.341Z,9.56
2023-04-14T00:19:57.409Z,9.55
2023-04-14T00:20:20.451Z,9.55
2023-04-14T00:20:43.570Z,9.53
2023-04-14T00:21:11.589Z,9.52
2023-04-14T00:21:34.619Z,9.51
2023-04-14T00:21:58.122Z,9.51
2023-04-14T00:22:22.370Z,9.51
2023-04-14T00:22:45.377Z,9.53
2023-04-14T00:23:08.693Z,9.54
2023-04-14T00:23:31.760Z,9.55
2023-04-14T00:23:56.964Z,9.56
2023-04-14T00:24:20.370Z,9.56
2023-04-14T00:24:44.096Z,9.58
2023-04-14T00:25:08.252Z,9.59
2023-04-14T00:25:31.476Z,9.60
2023-04-14T00:25:54.791Z,9.60
2023-04-14T00:26:18.005Z,9.61
2023-04-14T00:26:41.222Z,9.61
2023-04-14T00:27:04.438Z,9.61
2023-04-14T00:27:28.035Z,9.61
2023-04-14T00:27:54.765Z,9.61
2023-04-14T00:28:19.696Z,9.60
2023-04-14T00:28:55.609Z,9.59
2023-04-14T00:29:21.277Z,9.58
2023-04-14T00:29:46.347Z,9.57
2023-04-14T00:30:11.803Z,9.56
2023-04-14T00:30:36.345Z,9.56
2023-04-14T00:31:00.997Z,9.55
2023-04-14T00:31:25.928Z,9.54
2023-04-14T00:31:49.064Z,9.53
2023-04-14T00:32:12.287Z,9.53
2023-04-14T00:32:35.960Z,9.53
2023-04-14T00:32:59.078Z,9.54
2023-04-14T00:33:22.443Z,9.55
2023-04-14T00:33:45.637Z,9.56
2023-04-14T00:34:08.787Z,9.57
2023-04-14T00:34:32.293Z,9.58
2023-04-14T00:34:57.143Z,9.60
2023-04-14T00:35:20.061Z,9.61
2023-04-14T00:35:43.089Z,9.62
2023-04-14T00:36:06.797Z,9.64
2023-04-14T00:36:29.952Z,9.65
2023-04-14T00:36:55.410Z,9.64
2023-04-14T00:37:19.108Z,9.64
2023-04-14T00:37:42.220Z,9.62
2023-04-14T00:38:05.569Z,9.62
2023-04-14T00:38:28.652Z,9.61
2023-04-14T00:38:52.175Z,9.61
2023-04-14T00:39:15.204Z,9.60
2023-04-14T00:39:38.213Z,9.59
2023-04-14T00:40:01.394Z,9.58
2023-04-14T00:40:24.950Z,9.56
2023-04-14T00:40:48.158Z,9.56
2023-04-14T00:41:13.086Z,9.55
2023-04-14T00:41:36.112Z,9.54
2023-04-14T00:42:01.791Z,9.54
2023-04-14T00:42:26.344Z,9.55
2023-04-14T00:42:49.463Z,9.56
2023-04-14T00:43:12.675Z,9.56
2023-04-14T00:43:36.089Z,9.57
2023-04-14T00:43:59.406Z,9.58
2023-04-14T00:44:23.417Z,9.59
2023-04-14T00:44:48.294Z,9.60
2023-04-14T00:45:11.725Z,9.60
2023-04-14T00:45:41.379Z,9.61
2023-04-14T00:46:07.224Z,9.61
2023-04-14T00:46:30.429Z,9.61
2023-04-14T00:46:54.111Z,9.62
2023-04-14T00:47:17.631Z,9.62
2023-04-14T00:47:42.275Z,9.62
2023-04-14T00:48:05.507Z,9.61
2023-04-14T00:48:29.411Z,9.61
2023-04-14T00:48:52.933Z,9.60
2023-04-14T00:49:17.278Z,9.60
2023-04-14T00:49:40.631Z,9.59
2023-04-14T00:50:04.064Z,9.58
2023-04-14T00:50:27.342Z,9.57
2023-04-14T00:50:50.655Z,9.56
2023-04-14T00:51:13.972Z,9.56
2023-04-14T00:51:37.290Z,9.55
2023-04-14T00:52:01.106Z,9.55
2023-04-14T00:52:25.154Z,9.55
2023-04-14T00:52:49.401Z,9.56
2023-04-14T00:53:12.916Z,9.56
2023-04-14T00:53:38.046Z,9.58
2023-04-14T00:54:03.961Z,9.59
2023-04-14T00:54:28.195Z,9.60
2023-04-14T00:54:51.512Z,9.61
2023-04-14T00:55:15.854Z,9.61
2023-04-14T00:55:39.578Z,9.61
2023-04-14T00:56:02.595Z,9.61
2023-04-14T00:56:29.633Z,9.61
2023-04-14T00:56:52.838Z,9.60
2023-04-14T00:57:16.279Z,9.59
2023-04-14T00:57:40.583Z,9.58
2023-04-14T00:58:03.890Z,9.56
2023-04-14T00:58:27.423Z,9.56
2023-04-14T00:58:52.075Z,9.55
2023-04-14T00:59:15.807Z,9.54
2023-04-14T00:59:38.900Z,9.54
2023-04-14T01:00:02.222Z,9.54
2023-04-14T01:00:28.506Z,9.54
2023-04-14T01:00:55.698Z,9.54
2023-04-14T01:01:20.610Z,9.54
2023-04-14T01:01:45.087Z,9.55
2023-04-14T01:02:09.465Z,9.56
2023-04-14T01:02:34.226Z,9.57
2023-04-14T01:02:57.750Z,9.58
2023-04-14T01:03:22.248Z,9.58
2023-04-14T01:03:46.929Z,9.59
2023-04-14T01:04:11.628Z,9.60
2023-04-14T01:04:52.064Z,9.60
2023-04-14T01:05:17.137Z,9.60
2023-04-14T01:05:42.382Z,9.59
2023-04-14T01:06:05.599Z,9.58
2023-04-14T01:06:32.502Z,9.58
2023-04-14T01:06:56.840Z,9.57
2023-04-14T01:07:20.064Z,9.57
2023-04-14T01:07:43.477Z,9.57
2023-04-14T01:08:06.699Z,9.56
2023-04-14T01:08:30.320Z,9.55
2023-04-14T01:08:53.433Z,9.55
2023-04-14T01:09:24.526Z,9.55
2023-04-14T01:09:48.561Z,9.55
2023-04-14T01:10:11.893Z,9.55
2023-04-14T01:10:39.099Z,9.57
2023-04-14T01:11:02.227Z,9.58
2023-04-14T01:11:37.686Z,9.59
2023-04-14T01:12:04.075Z,9.60
2023-04-14T01:12:36.430Z,9.60
2023-04-14T01:13:02.984Z,9.61
2023-04-14T01:13:42.663Z,9.62
2023-04-14T01:14:26.337Z,9.61
2023-04-14T01:15:16.358Z,9.60
2023-04-14T01:15:41.248Z,9.59
2023-04-14T01:16:06.170Z,9.59
2023-04-14T01:16:30.504Z,9.59
2023-04-14T01:16:55.454Z,9.58
2023-04-14T01:17:40.916Z,9.57
2023-04-14T01:18:19.867Z,9.57
2023-04-14T01:18:53.999Z,9.57
2023-04-14T01:19:41.879Z,9.58
2023-04-14T01:20:11.525Z,9.61
2023-04-14T01:20:37.900Z,9.62
2023-04-14T01:21:03.672Z,9.63
2023-04-14T01:21:28.839Z,9.65
2023-04-14T01:21:53.586Z,9.66
2023-04-14T01:22:19.250Z,9.66
2023-04-14T01:22:44.450Z,9.66
2023-04-14T01:23:08.368Z,9.67
2023-04-14T01:23:32.496Z,9.66
2023-04-14T01:24:02.788Z,9.66
2023-04-14T01:24:41.209Z,9.64
2023-04-14T01:25:08.112Z,9.62
2023-04-14T01:25:31.437Z,9.61
2023-04-14T01:26:00.396Z,9.60
2023-04-14T01:26:28.399Z,9.59
2023-04-14T01:26:54.170Z,9.58
2023-04-14T01:27:24.344Z,9.57
2023-04-14T01:28:05.356Z,9.57
2023-04-14T01:28:37.691Z,9.58
2023-04-14T01:29:17.046Z,9.59
2023-04-14T01:29:59.284Z,9.60
2023-04-14T01:30:33.344Z,9.61
2023-04-14T01:31:16.031Z,9.62
2023-04-14T01:31:41.982Z,9.62
2023-04-14T01:32:06.195Z,9.64
2023-04-14T01:32:31.858Z,9.64
2023-04-14T01:32:56.785Z,9.65
2023-04-14T01:33:21.018Z,9.66
2023-04-14T01:33:49.502Z,9.65
2023-04-14T01:34:27.872Z,9.64
2023-04-14T01:34:54.039Z,9.64
2023-04-14T01:35:21.553Z,9.62
2023-04-14T01:35:46.017Z,9.61
2023-04-14T01:36:12.593Z,9.60
2023-04-14T01:36:42.857Z,9.59
2023-04-14T01:37:06.592Z,9.57
2023-04-14T01:37:30.863Z,9.57
2023-04-14T01:37:54.757Z,9.57
2023-04-14T01:38:22.578Z,9.57
2023-04-14T01:38:45.518Z,9.58
2023-04-14T01:39:11.667Z,9.59
2023-04-14T01:39:55.134Z,9.60
2023-04-14T01:40:19.683Z,9.61
2023-04-14T01:40:42.582Z,9.62
2023-04-14T01:41:07.629Z,9.63
2023-04-14T01:41:30.764Z,9.65
2023-04-14T01:41:58.290Z,9.65
2023-04-14T01:42:23.652Z,9.66
2023-04-14T01:42:52.491Z,9.65
2023-04-14T01:43:16.821Z,9.64
2023-04-14T01:43:42.383Z,9.63
2023-04-14T01:44:05.610Z,9.62
2023-04-14T01:44:30.878Z,9.61
2023-04-14T01:44:54.901Z,9.61
2023-04-14T01:45:20.893Z,9.59
2023-04-14T01:45:51.087Z,9.59
2023-04-14T01:46:14.910Z,9.58
2023-04-14T01:46:38.097Z,9.58
2023-04-14T01:47:02.641Z,9.57
2023-04-14T01:47:26.655Z,9.57
2023-04-14T01:47:49.741Z,9.57
2023-04-14T01:48:14.134Z,9.57
2023-04-14T01:48:37.451Z,9.58
2023-04-14T01:49:02.644Z,9.58
2023-04-14T01:49:29.027Z,9.59
2023-04-14T01:49:55.813Z,9.60
2023-04-14T01:50:19.526Z,9.61
2023-04-14T01:50:43.528Z,9.62
2023-04-14T01:51:06.609Z,9.63
2023-04-14T01:51:32.037Z,9.64
2023-04-14T01:51:56.078Z,9.65
2023-04-14T01:52:19.409Z,9.66
2023-04-14T01:52:47.871Z,9.66
2023-04-14T01:53:11.753Z,9.66
2023-04-14T01:53:36.400Z,9.66
2023-04-14T01:53:59.414Z,9.66
2023-04-14T01:54:23.490Z,9.64
2023-04-14T01:54:47.788Z,9.62
2023-04-14T01:55:14.276Z,9.61
2023-04-14T01:55:38.217Z,9.60
2023-04-14T01:56:01.832Z,9.58
2023-04-14T01:56:26.074Z,9.58
2023-04-14T01:56:49.417Z,9.56
2023-04-14T01:57:13.046Z,9.57
2023-04-14T01:57:36.721Z,9.57
2023-04-14T01:57:59.906Z,9.57
2023-04-14T01:58:24.405Z,9.59
2023-04-14T01:58:48.439Z,9.60
2023-04-14T01:59:11.869Z,9.61
2023-04-14T01:59:35.077Z,9.61
2023-04-14T01:59:58.580Z,9.62
2023-04-14T02:00:22.129Z,9.63
2023-04-14T02:00:45.823Z,9.63
2023-04-14T02:01:09.243Z,9.63
2023-04-14T02:01:32.574Z,9.64
2023-04-14T02:01:56.486Z,9.63
2023-04-14T02:02:20.538Z,9.61
2023-04-14T02:02:47.111Z,9.60
2023-04-14T02:03:14.559Z,9.59
2023-04-14T02:03:40.655Z,9.58
2023-04-14T02:04:05.003Z,9.56
2023-04-14T02:04:30.053Z,9.55
2023-04-14T02:04:54.174Z,9.55
2023-04-14T02:05:18.726Z,9.55
2023-04-14T02:05:42.550Z,9.55
2023-04-14T02:06:06.596Z,9.55
2023-04-14T02:06:31.881Z,9.56
2023-04-14T02:06:55.571Z,9.56
2023-04-14T02:07:18.631Z,9.57
2023-04-14T02:07:41.799Z,9.57
2023-04-14T02:08:06.758Z,9.58
2023-04-14T02:08:29.827Z,9.58
2023-04-14T02:08:53.090Z,9.58
2023-04-14T02:09:16.404Z,9.58
2023-04-14T02:09:39.723Z,9.59
2023-04-14T02:10:06.642Z,9.58
2023-04-14T02:10:32.005Z,9.58
2023-04-14T02:11:01.646Z,9.57
2023-04-14T02:11:36.224Z,9.56
2023-04-14T02:12:00.975Z,9.55
2023-04-14T02:12:24.086Z,9.53
2023-04-14T02:12:48.635Z,9.52
2023-04-14T02:13:33.423Z,9.51
2023-04-14T02:13:57.045Z,9.50
2023-04-14T02:14:23.131Z,9.49
2023-04-14T02:14:47.085Z,9.49
2023-04-14T02:15:13.703Z,9.50
2023-04-14T02:15:37.616Z,9.50
2023-04-14T02:16:01.104Z,9.50
2023-04-14T02:16:24.653Z,9.51
2023-04-14T02:16:48.217Z,9.52
2023-04-14T02:17:11.680Z,9.52
2023-04-14T02:17:34.749Z,9.53
2023-04-14T02:17:58.670Z,9.54
2023-04-14T02:18:22.376Z,9.54
2023-04-14T02:18:47.570Z,9.55
2023-04-14T02:19:13.614Z,9.55
2023-04-14T02:19:37.244Z,9.56
2023-04-14T02:20:00.302Z,9.56
2023-04-14T02:20:23.845Z,9.57
2023-04-14T02:21:06.807Z,9.56
2023-04-14T02:21:29.919Z,9.54
2023-04-14T02:21:52.944Z,9.53
2023-04-14T02:22:16.021Z,9.53
2023-04-14T02:22:39.165Z,9.51
2023-04-14T02:23:02.398Z,9.51
2023-04-14T02:23:26.514Z,9.50
2023-04-14T02:23:50.953Z,9.49
2023-04-14T02:24:13.993Z,9.48
2023-04-14T02:24:37.183Z,9.48
2023-04-14T02:25:01.019Z,9.48
2023-04-14T02:25:29.749Z,9.49
2023-04-14T02:25:58.391Z,9.50
2023-04-14T02:26:24.671Z,9.50
2023-04-14T02:27:06.639Z,9.52
2023-04-14T02:27:52.332Z,9.53
2023-04-14T02:28:16.663Z,9.54
2023-04-14T02:28:42.114Z,9.55
2023-04-14T02:29:10.758Z,9.56
2023-04-14T02:29:33.879Z,9.56
2023-04-14T02:29:56.916Z,9.56
2023-04-14T02:30:23.184Z,9.56
2023-04-14T02:30:48.730Z,9.56
2023-04-14T02:31:12.510Z,9.56
2023-04-14T02:31:36.815Z,9.55
2023-04-14T02:32:06.597Z,9.54
2023-04-14T02:32:30.142Z,9.53
2023-04-14T02:32:56.799Z,9.51
2023-04-14T02:33:20.538Z,9.51
2023-04-14T02:33:43.730Z,9.51
2023-04-14T02:34:07.257Z,9.50
2023-04-14T02:34:33.873Z,9.51
2023-04-14T02:35:01.599Z,9.52
2023-04-14T02:35:28.056Z,9.52
2023-04-14T02:36:10.090Z,9.53
2023-04-14T02:36:40.387Z,9.54
2023-04-14T02:37:04.292Z,9.54
2023-04-14T02:37:28.124Z,9.54
2023-04-14T02:37:51.959Z,9.54
2023-04-14T02:38:29.393Z,9.55
2023-04-14T02:38:58.208Z,9.54
2023-04-14T02:39:26.250Z,9.55
2023-04-14T02:39:51.510Z,9.54
2023-04-14T02:40:16.267Z,9.54
2023-04-14T02:40:39.696Z,9.51
2023-04-14T02:41:07.522Z,9.52
2023-04-14T02:41:33.388Z,9.50
2023-04-14T02:42:02.537Z,9.50
2023-04-14T02:42:27.274Z,9.49
2023-04-14T02:42:51.219Z,9.48
2023-04-14T02:43:18.128Z,9.47
2023-04-14T02:43:44.766Z,9.46
2023-04-14T02:44:10.539Z,9.46
2023-04-14T02:44:34.825Z,9.45
2023-04-14T02:45:01.185Z,9.45
2023-04-14T02:45:27.799Z,9.46
2023-04-14T02:45:52.360Z,9.48
2023-04-14T02:46:16.710Z,9.48
2023-04-14T02:46:41.321Z,9.49
2023-04-14T02:47:07.037Z,9.50
2023-04-14T02:47:33.596Z,9.51
2023-04-14T02:48:03.330Z,9.52
2023-04-14T02:48:27.796Z,9.53
2023-04-14T02:48:51.829Z,9.54
2023-04-14T02:49:15.561Z,9.54
2023-04-14T02:49:42.760Z,9.55
2023-04-14T02:50:06.288Z,9.54
2023-04-14T02:50:30.626Z,9.53
2023-04-14T02:50:59.179Z,9.53
2023-04-14T02:51:24.061Z,9.52
2023-04-14T02:51:47.339Z,9.50
2023-04-14T02:52:11.367Z,9.49
2023-04-14T02:52:36.942Z,9.47
2023-04-14T02:53:01.332Z,9.46
2023-04-14T02:53:30.118Z,9.46
2023-04-14T02:54:17.170Z,9.45
2023-04-14T02:54:43.350Z,9.46
2023-04-14T02:55:07.967Z,9.46
2023-04-14T02:55:32.030Z,9.46
2023-04-14T02:55:55.350Z,9.48
2023-04-14T02:56:18.872Z,9.48
2023-04-14T02:56:42.807Z,9.49
2023-04-14T02:57:07.253Z,9.49
2023-04-14T02:57:33.339Z,9.50
2023-04-14T02:57:56.749Z,9.50
2023-04-14T02:58:20.183Z,9.50
2023-04-14T02:58:43.286Z,9.50
2023-04-14T02:59:06.504Z,9.50
2023-04-14T02:59:30.243Z,9.49
2023-04-14T02:59:57.549Z,9.49
2023-04-14T03:00:24.640Z,9.48
2023-04-14T03:00:48.471Z,9.47
2023-04-14T03:01:12.019Z,9.46
2023-04-14T03:01:38.212Z,9.45
2023-04-14T03:02:04.931Z,9.43
2023-04-14T03:02:29.660Z,9.42
2023-04-14T03:03:03.185Z,9.40
2023-04-14T03:03:28.690Z,9.39
2023-04-14T03:03:53.572Z,9.38
2023-04-14T03:04:17.264Z,9.38
2023-04-14T03:04:42.072Z,9.38
2023-04-14T03:05:11.417Z,9.40
2023-04-14T03:05:57.441Z,9.41
2023-04-14T03:06:20.760Z,9.41
2023-04-14T03:06:43.788Z,9.42
2023-04-14T03:07:10.163Z,9.42
2023-04-14T03:07:33.514Z,9.43
2023-04-14T03:07:57.513Z,9.43
2023-04-14T03:08:20.729Z,9.42
2023-04-14T03:08:46.210Z,9.42
2023-04-14T03:09:10.535Z,9.41
2023-04-14T03:09:37.548Z,9.40
2023-04-14T03:10:06.393Z,9.38
2023-04-14T03:10:33.390Z,9.37
2023-04-14T03:10:57.439Z,9.35
2023-04-14T03:11:21.549Z,9.35
2023-04-14T03:11:45.402Z,9.33
2023-04-14T03:12:12.313Z,9.33
2023-04-14T03:12:37.983Z,9.34
2023-04-14T03:13:02.090Z,9.34
2023-04-14T03:13:25.916Z,9.35
2023-04-14T03:13:50.567Z,9.35
2023-04-14T03:14:13.607Z,9.36
2023-04-14T03:14:37.201Z,9.36
2023-04-14T03:15:01.143Z,9.36
2023-04-14T03:15:24.961Z,9.36
2023-04-14T03:15:48.061Z,9.37
2023-04-14T03:16:11.809Z,9.37
2023-04-14T03:16:35.501Z,9.38
2023-04-14T03:16:59.035Z,9.38
2023-04-14T03:17:24.451Z,9.38
2023-04-14T03:17:56.089Z,9.37
2023-04-14T03:18:21.198Z,9.36
2023-04-14T03:18:45.524Z,9.36
2023-04-14T03:19:10.580Z,9.36
2023-04-14T03:19:36.762Z,9.35
2023-04-14T03:20:00.389Z,9.33
2023-04-14T03:20:24.055Z,9.33
2023-04-14T03:20:50.321Z,9.32
2023-04-14T03:21:14.743Z,9.31
2023-04-14T03:21:37.961Z,9.30
2023-04-14T03:22:01.427Z,9.29
2023-04-14T03:22:28.323Z,9.29
2023-04-14T03:22:57.836Z,9.29
2023-04-14T03:23:23.107Z,9.29
2023-04-14T03:23:53.582Z,9.31
2023-04-14T03:24:24.373Z,9.31
2023-04-14T03:24:47.685Z,9.32
2023-04-14T03:25:12.540Z,9.33
2023-04-14T03:25:40.144Z,9.34
2023-04-14T03:26:07.134Z,9.34
2023-04-14T03:26:31.289Z,9.36
2023-04-14T03:26:58.870Z,9.37
2023-04-14T03:27:22.966Z,9.37
2023-04-14T03:27:46.262Z,9.37
2023-04-14T03:28:16.162Z,9.36
2023-04-14T03:28:42.319Z,9.36
2023-04-14T03:29:06.020Z,9.35
2023-04-14T03:29:29.645Z,9.34
2023-04-14T03:29:53.170Z,9.29
2023-04-14T03:30:18.737Z,9.32
2023-04-14T03:30:43.899Z,9.31
2023-04-14T03:31:09.094Z,9.28
2023-04-14T03:32:00.514Z,9.28
2023-04-14T03:32:25.284Z,9.29
2023-04-14T03:32:48.373Z,9.29
2023-04-14T03:33:12.706Z,9.31
2023-04-14T03:33:36.016Z,9.32
2023-04-14T03:34:00.229Z,9.33
2023-04-14T03:34:28.390Z,9.34
2023-04-14T03:34:55.286Z,9.35
2023-04-14T03:35:18.911Z,9.36
2023-04-14T03:35:42.129Z,9.37
2023-04-14T03:36:06.162Z,9.37
2023-04-14T03:36:29.485Z,9.38
2023-04-14T03:36:54.658Z,9.38
2023-04-14T03:37:21.047Z,9.38
2023-04-14T03:37:44.082Z,9.37
2023-04-14T03:38:10.032Z,9.36
2023-04-14T03:38:34.259Z,9.35
2023-04-14T03:39:01.730Z,9.34
2023-04-14T03:39:28.475Z,9.33
2023-04-14T03:39:52.397Z,9.32
2023-04-14T03:40:15.918Z,9.30
2023-04-14T03:40:41.397Z,9.28
2023-04-14T03:41:05.722Z,9.27
2023-04-14T03:41:29.146Z,9.27
2023-04-14T03:41:52.772Z,9.27
2023-04-14T03:42:16.919Z,9.28
2023-04-14T03:42:41.760Z,9.28
2023-04-14T03:43:05.384Z,9.29
2023-04-14T03:43:28.499Z,9.29
2023-04-14T03:43:57.649Z,9.30
2023-04-14T03:44:23.932Z,9.31
2023-04-14T03:44:51.752Z,9.31
2023-04-14T03:45:15.490Z,9.32
2023-04-14T03:45:43.421Z,9.32
2023-04-14T03:46:07.282Z,9.32
2023-04-14T03:46:32.019Z,9.31
2023-04-14T03:46:56.505Z,9.31
2023-04-14T03:47:24.679Z,9.30
2023-04-14T03:47:48.358Z,9.28
2023-04-14T03:48:12.850Z,9.28
2023-04-14T03:48:42.965Z,9.27
2023-04-14T03:49:11.343Z,9.25
2023-04-14T03:49:38.135Z,9.25
2023-04-14T03:50:01.947Z,9.23
2023-04-14T03:50:27.947Z,9.23
2023-04-14T03:50:51.968Z,9.23
2023-04-14T03:51:16.013Z,9.23
2023-04-14T03:51:41.872Z,9.23
2023-04-14T03:52:06.621Z,9.23
2023-04-14T03:52:30.041Z,9.24
2023-04-14T03:52:55.224Z,9.25
2023-04-14T03:53:18.920Z,9.25
2023-04-14T03:53:42.290Z,9.26
2023-04-14T03:54:06.502Z,9.27
2023-04-14T03:54:30.729Z,9.28
2023-04-14T03:54:54.890Z,9.28
2023-04-14T03:55:19.103Z,9.29
2023-04-14T03:55:44.987Z,9.30
2023-04-14T03:56:08.302Z,9.29
2023-04-14T03:56:38.284Z,9.29
2023-04-14T03:57:06.392Z,9.29
2023-04-14T03:57:29.711Z,9.28
2023-04-14T03:57:54.876Z,9.27
2023-04-14T03:58:18.181Z,9.26
2023-04-14T03:58:43.068Z,9.24
2023-04-14T03:59:10.161Z,9.23
2023-04-14T03:59:35.415Z,9.22
2023-04-14T03:59:58.936Z,9.21
2023-04-14T04:00:21.969Z,9.20
2023-04-14T04:01:00.809Z,9.20
2023-04-14T04:01:26.164Z,9.21
2023-04-14T04:01:50.782Z,9.21
2023-04-14T04:02:14.311Z,9.22
2023-04-14T04:02:38.731Z,9.23
2023-04-14T04:03:02.926Z,9.24
2023-04-14T04:03:26.753Z,9.25
2023-04-14T04:03:50.127Z,9.27
2023-04-14T04:04:13.745Z,9.27
2023-04-14T04:04:37.280Z,9.28
2023-04-14T04:05:00.815Z,9.29
2023-04-14T04:05:24.477Z,9.30
2023-04-14T04:05:47.491Z,9.31
2023-04-14T04:06:11.922Z,9.31
2023-04-14T04:06:37.284Z,9.30
2023-04-14T04:07:00.627Z,9.30
2023-04-14T04:07:25.770Z,9.30
2023-04-14T04:07:52.166Z,9.29
2023-04-14T04:08:15.474Z,9.28
2023-04-14T04:08:39.170Z,9.27
2023-04-14T04:09:02.463Z,9.26
2023-04-14T04:09:26.754Z,9.26
2023-04-14T04:09:50.078Z,9.24
2023-04-14T04:10:13.395Z,9.24
2023-04-14T04:10:37.062Z,9.25
2023-04-14T04:11:00.753Z,9.26
2023-04-14T04:11:23.959Z,9.27
2023-04-14T04:11:49.783Z,9.29
2023-04-14T04:12:16.539Z,9.30
2023-04-14T04:12:41.826Z,9.31
2023-04-14T04:13:13.211Z,9.32
2023-04-14T04:13:37.131Z,9.34
2023-04-14T04:14:02.184Z,9.35
2023-04-14T04:14:27.959Z,9.35
2023-04-14T04:14:52.330Z,9.35
2023-04-14T04:15:16.555Z,9.35
2023-04-14T04:15:40.185Z,9.34
2023-04-14T04:16:03.701Z,9.33
2023-04-14T04:16:27.124Z,9.32
2023-04-14T04:16:50.237Z,9.31
2023-04-14T04:17:14.046Z,9.30
2023-04-14T04:17:37.378Z,9.29
2023-04-14T04:18:01.162Z,9.27
2023-04-14T04:18:25.236Z,9.27
2023-04-14T04:18:49.267Z,9.26
2023-04-14T04:19:14.439Z,9.26
2023-04-14T04:19:40.618Z,9.27
2023-04-14T04:20:07.368Z,9.27
2023-04-14T04:20:31.171Z,9.29
2023-04-14T04:20:55.881Z,9.30
2023-04-14T04:21:19.513Z,9.30
2023-04-14T04:21:42.684Z,9.31
2023-04-14T04:22:06.073Z,9.31
2023-04-14T04:22:29.165Z,9.32
2023-04-14T04:22:52.890Z,9.32
2023-04-14T04:23:17.872Z,9.32
2023-04-14T04:23:41.566Z,9.32
2023-04-14T04:24:06.828Z,9.31
2023-04-14T04:24:31.782Z,9.30
2023-04-14T04:24:54.999Z,9.29
2023-04-14T04:25:22.415Z,9.28
2023-04-14T04:26:02.534Z,9.26
2023-04-14T04:26:39.013Z,9.23
2023-04-14T04:27:02.124Z,9.22
2023-04-14T04:27:28.727Z,9.21
2023-04-14T04:27:59.095Z,9.20
2023-04-14T04:28:22.317Z,9.20
2023-04-14T04:28:46.378Z,9.20
2023-04-14T04:29:09.873Z,9.21
2023-04-14T04:29:33.386Z,9.21
2023-04-14T04:29:57.331Z,9.22
2023-04-14T04:30:21.059Z,9.23
2023-04-14T04:30:44.675Z,9.24
2023-04-14T04:31:08.401Z,9.24
2023-04-14T04:31:35.577Z,9.25
2023-04-14T04:31:59.703Z,9.26
2023-04-14T04:32:23.931Z,9.25
2023-04-14T04:32:47.542Z,9.25
2023-04-14T04:33:10.792Z,9.23
2023-04-14T04:33:33.957Z,9.23
2023-04-14T04:33:58.485Z,9.22
2023-04-14T04:34:26.204Z,9.21
2023-04-14T04:34:51.774Z,9.19
2023-04-14T04:35:14.984Z,9.18
2023-04-14T04:35:39.126Z,9.17
2023-04-14T04:36:02.851Z,9.16
2023-04-14T04:36:31.802Z,9.15
2023-04-14T04:36:56.140Z,9.15
2023-04-14T04:37:19.661Z,9.16
2023-04-14T04:37:43.714Z,9.16
2023-04-14T04:38:08.446Z,9.17
2023-04-14T04:38:31.672Z,9.18
2023-04-14T04:38:55.081Z,9.19
2023-04-14T04:39:18.300Z,9.20
2023-04-14T04:39:41.339Z,9.22
2023-04-14T04:40:05.266Z,9.23
2023-04-14T04:40:28.664Z,9.23
2023-04-14T04:40:57.299Z,9.24
2023-04-14T04:41:25.762Z,9.24
2023-04-14T04:41:52.132Z,9.24
2023-04-14T04:42:16.714Z,9.24
2023-04-14T04:42:43.466Z,9.24
2023-04-14T04:43:09.639Z,9.23
2023-04-14T04:43:33.417Z,9.23
2023-04-14T04:43:57.083Z,9.22
2023-04-14T04:44:20.945Z,9.21
2023-04-14T04:44:44.316Z,9.20
2023-04-14T04:45:07.979Z,9.20
2023-04-14T04:45:36.712Z,9.19
2023-04-14T04:46:18.887Z,9.18
2023-04-14T04:46:55.060Z,9.20
2023-04-14T04:47:21.681Z,9.21
2023-04-14T04:47:44.986Z,9.22
2023-04-14T04:48:09.062Z,9.22
2023-04-14T04:48:32.832Z,9.23
2023-04-14T04:48:56.049Z,9.25
2023-04-14T04:49:22.436Z,9.26
2023-04-14T04:49:46.264Z,9.27
2023-04-14T04:50:10.302Z,9.28
2023-04-14T04:50:33.733Z,9.29
2023-04-14T04:50:56.835Z,9.28
2023-04-14T04:51:20.053Z,9.28
2023-04-14T04:51:43.686Z,9.28
2023-04-14T04:52:06.938Z,9.27
2023-04-14T04:52:30.927Z,9.25
2023-04-14T04:52:53.937Z,9.24
2023-04-14T04:53:21.567Z,9.23
2023-04-14T04:53:49.169Z,9.23
2023-04-14T04:54:14.740Z,9.21
2023-04-14T04:54:39.184Z,9.21
2023-04-14T04:55:02.943Z,9.21
2023-04-14T04:55:26.431Z,9.21
2023-04-14T04:55:49.438Z,9.21
2023-04-14T04:56:13.169Z,9.23
2023-04-14T04:56:36.497Z,9.23
2023-04-14T04:57:00.147Z,9.24
2023-04-14T04:57:23.248Z,9.26
2023-04-14T04:57:46.443Z,9.27
2023-04-14T04:58:09.665Z,9.28
2023-04-14T04:58:32.833Z,9.29
2023-04-14T04:58:55.783Z,9.30
2023-04-14T04:59:19.112Z,9.30
2023-04-14T04:59:46.557Z,9.30
2023-04-14T05:00:10.034Z,9.30
2023-04-14T05:00:35.814Z,9.29
2023-04-14T05:01:15.134Z,9.27
2023-04-14T05:01:39.255Z,9.26
2023-04-14T05:02:02.629Z,9.26
2023-04-14T05:02:26.161Z,9.25
2023-04-14T05:02:49.726Z,9.24
2023-04-14T05:03:13.164Z,9.24
2023-04-14T05:03:36.994Z,9.24
2023-04-14T05:04:00.313Z,9.23
2023-04-14T05:04:23.858Z,9.23
2023-04-14T05:04:48.984Z,9.23
2023-04-14T05:05:12.268Z,9.24
2023-04-14T05:05:36.296Z,9.24
2023-04-14T05:05:59.714Z,9.26
2023-04-14T05:06:25.369Z,9.27
2023-04-14T05:06:52.184Z,9.27
2023-04-14T05:07:15.607Z,9.29
2023-04-14T05:07:39.354Z,9.30
2023-04-14T05:08:03.670Z,9.31
2023-04-14T05:08:28.122Z,9.32
2023-04-14T05:08:52.583Z,9.32
2023-04-14T05:09:16.183Z,9.32
2023-04-14T05:09:39.808Z,9.31
2023-04-14T05:10:04.353Z,9.30
2023-04-14T05:10:27.471Z,9.29
2023-04-14T05:10:50.684Z,9.28
2023-04-14T05:11:13.944Z,9.27
2023-04-14T05:11:37.114Z,9.25
2023-04-14T05:12:00.848Z,9.23
2023-04-14T05:12:24.321Z,9.23
2023-04-14T05:12:47.907Z,9.22
2023-04-14T05:13:11.624Z,9.22
2023-04-14T05:13:34.650Z,9.21
2023-04-14T05:13:57.765Z,9.21
2023-04-14T05:14:21.063Z,9.22
2023-04-14T05:14:44.277Z,9.22
2023-04-14T05:15:12.216Z,9.24
2023-04-14T05:15:35.846Z,9.24
2023-04-14T05:16:06.656Z,9.24
2023-04-14T05:16:37.613Z,9.26
2023-04-14T05:17:00.716Z,9.27
2023-04-14T05:17:24.712Z,9.27
2023-04-14T05:17:48.218Z,9.27
2023-04-14T05:18:12.004Z,9.28
2023-04-14T05:18:36.467Z,9.28
2023-04-14T05:18:59.849Z,9.27
2023-04-14T05:19:24.309Z,9.27
2023-04-14T05:19:47.430Z,9.26
2023-04-14T05:20:11.478Z,9.24
2023-04-14T05:20:35.110Z,9.24
2023-04-14T05:21:02.901Z,9.22
2023-04-14T05:21:25.876Z,9.21
2023-04-14T05:21:48.927Z,9.19
2023-04-14T05:22:13.179Z,9.19
2023-04-14T05:22:36.281Z,9.19
2023-04-14T05:22:59.493Z,9.19
2023-04-14T05:23:22.726Z,9.20
2023-04-14T05:23:46.750Z,9.20
2023-04-14T05:24:11.700Z,9.21
2023-04-14T05:24:34.734Z,9.21
2023-04-14T05:24:59.158Z,9.22
2023-04-14T05:25:23.462Z,9.23
2023-04-14T05:25:48.688Z,9.23
2023-04-14T05:26:38.834Z,9.24
2023-04-14T05:27:13.729Z,9.24
2023-04-14T05:27:38.214Z,9.23
2023-04-14T05:28:01.830Z,9.22
2023-04-14T05:28:25.032Z,9.22
2023-04-14T05:28:48.453Z,9.21
2023-04-14T05:29:11.900Z,9.20
2023-04-14T05:29:35.095Z,9.20
2023-04-14T05:29:58.417Z,9.19
2023-04-14T05:30:21.832Z,9.19
2023-04-14T05:30:45.481Z,9.18
2023-04-14T05:31:09.999Z,9.18
2023-04-14T05:31:33.492Z,9.17
2023-04-14T05:31:57.072Z,9.16
2023-04-14T05:32:21.758Z,9.18
2023-04-14T05:32:44.930Z,9.19
2023-04-14T05:33:08.393Z,9.20
2023-04-14T05:33:31.559Z,9.21
2023-04-14T05:33:54.772Z,9.21
2023-04-14T05:34:18.200Z,9.22
2023-04-14T05:34:42.118Z,9.23
2023-04-14T05:35:05.650Z,9.24
2023-04-14T05:35:28.863Z,9.24
2023-04-14T05:35:52.389Z,9.25
2023-04-14T05:36:15.914Z,9.24
2023-04-14T05:36:39.030Z,9.25
2023-04-14T05:38:02.069Z,9.27
2023-04-14T05:38:24.670Z,9.22
2023-04-14T05:38:46.493Z,9.21